createdAt,value
2019-01-20T00:01:20.763Z,8.13
2019-01-20T00:03:50.569Z,7.40
2019-01-20T00:06:20.527Z,7.40
2019-01-20T00:08:50.444Z,7.87
2019-01-20T00:11:20.340Z,7.10
2019-01-20T00:13:50.300Z,7.27
2019-01-20T00:16:21.001Z,7.80
2019-01-20T00:18:50.788Z,7.77
2019-01-20T00:21:21.406Z,6.97
2019-01-20T00:23:51.357Z,7.40
2019-01-20T00:26:21.247Z,6.90
2019-01-20T00:28:51.737Z,6.90
2019-01-20T00:31:21.671Z,7.03
2019-01-20T00:33:51.809Z,7.67
2019-01-20T00:36:25.899Z,6.93
2019-01-20T00:38:55.787Z,9.73
2019-01-20T00:41:28.039Z,8.00
2019-01-20T00:43:57.813Z,7.30
2019-01-20T00:46:27.684Z,6.80
2019-01-20T00:48:58.607Z,7.30
2019-01-20T00:51:29.148Z,7.00
2019-01-20T00:53:59.189Z,7.70
2019-01-20T00:56:29.449Z,7.27
2019-01-20T00:58:59.321Z,6.83
2019-01-20T01:01:29.132Z,6.33
2019-01-20T01:04:00.712Z,6.83
2019-01-20T01:06:30.643Z,7.17
2019-01-20T01:09:00.489Z,7.00
2019-01-20T01:11:31.739Z,7.20
2019-01-20T01:14:03.844Z,7.40
2019-01-20T01:16:33.725Z,10.30
2019-01-20T01:19:03.760Z,11.00
2019-01-20T01:21:33.713Z,8.93
2019-01-20T01:24:03.827Z,7.90
2019-01-20T01:26:34.197Z,7.90
2019-01-20T01:29:04.182Z,9.23
2019-01-20T01:31:34.215Z,8.45
2019-01-20T01:34:04.152Z,7.93
2019-01-20T01:36:33.992Z,8.30
2019-01-20T01:39:07.005Z,7.93
2019-01-20T01:41:39.183Z,7.70
2019-01-20T01:44:08.543Z,7.63
2019-01-20T01:46:38.396Z,8.77
2019-01-20T01:49:08.328Z,7.20
2019-01-20T01:51:38.451Z,7.03
2019-01-20T01:54:08.363Z,6.80
2019-01-20T01:56:38.181Z,7.33
2019-01-20T01:59:07.955Z,6.92
2019-01-20T02:01:37.959Z,7.10
2019-01-20T02:04:08.037Z,7.27
2019-01-20T02:06:38.147Z,6.63
2019-01-20T02:09:09.068Z,7.67
2019-01-20T02:11:39.050Z,6.93
2019-01-20T02:14:09.913Z,6.30
2019-01-20T02:16:39.801Z,6.90
2019-01-20T02:19:10.664Z,6.37
2019-01-20T02:21:40.821Z,6.57
2019-01-20T02:24:10.720Z,6.55
2019-01-20T02:26:40.544Z,6.73
2019-01-20T02:29:10.708Z,6.10
2019-01-20T02:31:40.687Z,6.57
2019-01-20T02:34:10.514Z,6.40
2019-01-20T02:36:40.538Z,5.77
2019-01-20T02:39:10.776Z,5.97
2019-01-20T02:41:40.779Z,6.17
2019-01-20T02:44:10.973Z,6.00
2019-01-20T02:46:41.772Z,6.00
2019-01-20T02:49:11.591Z,6.07
2019-01-20T02:51:41.545Z,6.00
2019-01-20T02:54:11.290Z,5.90
2019-01-20T02:56:41.194Z,6.33
2019-01-20T02:59:11.042Z,6.77
2019-01-20T03:01:41.274Z,6.77
2019-01-20T03:04:11.189Z,6.87
2019-01-20T03:06:41.039Z,6.67
2019-01-20T03:09:11.376Z,6.70
2019-01-20T03:11:41.624Z,6.47
2019-01-20T03:14:11.908Z,6.55
2019-01-20T03:16:41.813Z,6.50
2019-01-20T03:19:12.013Z,5.87
2019-01-20T03:21:41.997Z,6.20
2019-01-20T03:24:11.893Z,6.63
2019-01-20T03:26:41.764Z,6.27
2019-01-20T03:29:11.912Z,6.93
2019-01-20T03:31:41.963Z,6.67
2019-01-20T03:34:11.777Z,7.10
2019-01-20T03:36:41.791Z,6.63
2019-01-20T03:39:11.651Z,7.03
2019-01-20T03:41:41.721Z,7.57
2019-01-20T03:44:11.661Z,6.77
2019-01-20T03:46:41.590Z,7.33
2019-01-20T03:49:11.362Z,7.00
2019-01-20T03:51:53.481Z,6.77
2019-01-20T03:54:23.441Z,6.53
2019-01-20T03:56:53.657Z,7.90
2019-01-20T03:59:23.726Z,9.27
2019-01-20T04:01:53.992Z,10.13
2019-01-20T04:04:23.909Z,8.70
2019-01-20T04:06:53.877Z,7.90
2019-01-20T04:09:23.844Z,6.07
2019-01-20T04:11:53.860Z,6.30
2019-01-20T04:14:24.753Z,5.80
2019-01-20T04:16:54.879Z,6.72
2019-01-20T04:19:24.907Z,6.13
2019-01-20T04:21:54.847Z,5.65
2019-01-20T04:24:24.841Z,4.53
2019-01-20T04:26:54.839Z,5.10
2019-01-20T04:29:25.201Z,4.67
2019-01-20T04:31:55.059Z,4.03
2019-01-20T04:34:24.861Z,3.93
2019-01-20T04:36:54.833Z,5.13
2019-01-20T04:39:25.119Z,3.70
2019-01-20T04:41:54.808Z,3.83
2019-01-20T04:44:24.681Z,5.00
2019-01-20T04:46:54.558Z,4.13
2019-01-20T04:49:24.530Z,4.30
2019-01-20T04:51:54.413Z,4.13
2019-01-20T04:54:24.506Z,3.87
2019-01-20T04:56:54.325Z,4.20
2019-01-20T04:59:24.194Z,4.20
2019-01-20T05:01:54.692Z,4.27
2019-01-20T05:04:24.546Z,5.07
2019-01-20T05:06:54.318Z,4.27
2019-01-20T05:09:24.603Z,4.40
2019-01-20T05:11:54.463Z,4.47
2019-01-20T05:14:24.360Z,4.67
2019-01-20T05:16:54.209Z,3.77
2019-01-20T05:19:24.374Z,3.80
2019-01-20T05:21:54.234Z,3.57
2019-01-20T05:24:23.990Z,3.83
2019-01-20T05:26:53.838Z,3.97
2019-01-20T05:29:23.925Z,3.70
2019-01-20T05:31:53.958Z,3.40
2019-01-20T05:34:24.069Z,4.30
2019-01-20T05:36:54.065Z,4.17
2019-01-20T05:39:24.931Z,3.90
2019-01-20T05:41:55.121Z,3.63
2019-01-20T05:44:25.060Z,4.23
2019-01-20T05:46:54.851Z,4.17
2019-01-20T05:49:24.769Z,4.13
2019-01-20T05:51:54.595Z,4.10
2019-01-20T05:54:25.568Z,5.13
2019-01-20T05:56:55.432Z,4.62
2019-01-20T05:59:25.247Z,5.00
2019-01-20T06:01:55.053Z,4.87
2019-01-20T06:04:24.844Z,4.70
2019-01-20T06:06:54.805Z,4.13
2019-01-20T06:09:24.664Z,4.60
2019-01-20T06:11:54.422Z,4.40
2019-01-20T06:14:24.368Z,4.07
2019-01-20T06:16:54.213Z,3.83
2019-01-20T06:19:24.169Z,4.80
2019-01-20T06:21:54.321Z,4.03
2019-01-20T06:24:24.545Z,3.80
2019-01-20T06:26:55.660Z,4.10
2019-01-20T06:29:25.417Z,4.08
2019-01-20T06:31:55.557Z,3.77
2019-01-20T06:34:26.036Z,3.60
2019-01-20T06:36:56.041Z,4.70
2019-01-20T06:39:26.679Z,4.07
2019-01-20T06:41:57.055Z,3.83
2019-01-20T06:44:26.830Z,3.87
2019-01-20T06:46:56.771Z,3.98
2019-01-20T06:49:26.825Z,4.13
2019-01-20T06:51:56.712Z,4.15
2019-01-20T06:54:26.578Z,4.23
2019-01-20T06:56:56.681Z,4.00
2019-01-20T06:59:26.863Z,3.97
2019-01-20T07:01:56.905Z,4.27
2019-01-20T07:04:26.862Z,3.90
2019-01-20T07:06:57.520Z,3.70
2019-01-20T07:09:27.309Z,4.57
2019-01-20T07:11:57.899Z,4.20
2019-01-20T07:14:27.679Z,4.35
2019-01-20T07:16:57.597Z,4.03
2019-01-20T07:19:27.421Z,4.33
2019-01-20T07:21:57.566Z,4.80
2019-01-20T07:24:27.469Z,4.37
2019-01-20T07:26:57.303Z,5.00
2019-01-20T07:29:28.124Z,4.50
2019-01-20T07:31:57.940Z,4.03
2019-01-20T07:34:27.871Z,4.13
2019-01-20T07:36:58.095Z,3.97
2019-01-20T07:39:28.962Z,4.00
2019-01-20T07:41:58.945Z,3.75
2019-01-20T07:44:28.987Z,3.90
2019-01-20T07:46:59.021Z,4.47
2019-01-20T07:49:28.921Z,4.30
2019-01-20T07:51:58.858Z,4.43
2019-01-20T07:54:28.567Z,4.58
2019-01-20T07:56:58.390Z,3.67
2019-01-20T07:59:28.269Z,4.27
2019-01-20T08:01:58.590Z,4.53
2019-01-20T08:04:28.344Z,3.93
2019-01-20T08:06:58.116Z,4.37
2019-01-20T08:09:27.829Z,4.20
2019-01-20T08:11:57.864Z,3.70
2019-01-20T08:14:27.917Z,4.10
2019-01-20T08:16:58.575Z,4.00
2019-01-20T08:19:28.342Z,4.33
2019-01-20T08:21:58.216Z,4.53
2019-01-20T08:24:28.107Z,4.60
2019-01-20T08:26:57.949Z,4.47
2019-01-20T08:29:27.784Z,4.50
2019-01-20T08:31:57.517Z,4.57
2019-01-20T08:34:27.786Z,4.43
2019-01-20T08:36:57.597Z,4.60
2019-01-20T08:39:27.609Z,4.13
2019-01-20T08:41:57.733Z,4.67
2019-01-20T08:44:31.246Z,3.80
2019-01-20T08:47:21.636Z,4.80
2019-01-20T08:49:51.482Z,4.30
2019-01-20T08:52:21.372Z,4.57
2019-01-20T08:54:51.178Z,4.97
2019-01-20T08:57:21.047Z,4.33
2019-01-20T08:59:50.920Z,4.63
2019-01-20T09:02:20.864Z,4.67
2019-01-20T09:05:22.132Z,5.45
2019-01-20T09:07:52.192Z,4.55
2019-01-20T09:10:24.701Z,4.73
2019-01-20T09:12:56.392Z,4.80
2019-01-20T09:15:26.631Z,5.07
2019-01-20T09:17:56.892Z,4.97
2019-01-20T09:20:27.086Z,5.13
2019-01-20T09:22:57.216Z,5.20
2019-01-20T09:25:36.485Z,4.90
2019-01-20T09:28:07.563Z,5.23
2019-01-20T09:30:38.256Z,5.33
2019-01-20T09:33:08.510Z,5.23
2019-01-20T09:35:39.361Z,5.53
2019-01-20T09:38:10.143Z,5.00
2019-01-20T09:40:42.697Z,5.37
2019-01-20T09:43:12.885Z,5.80
2019-01-20T09:45:43.120Z,6.25
2019-01-20T09:48:13.219Z,5.57
2019-01-20T09:50:43.288Z,5.43
2019-01-20T09:53:23.583Z,5.23
2019-01-20T09:56:04.847Z,4.90
2019-01-20T09:58:36.377Z,5.67
2019-01-20T10:01:24.537Z,5.10
2019-01-20T10:03:55.559Z,5.10
2019-01-20T10:06:28.348Z,5.47
2019-01-20T10:08:59.497Z,5.20
2019-01-20T10:11:30.359Z,5.00
2019-01-20T10:14:11.597Z,4.90
2019-01-20T10:16:41.800Z,5.27
2019-01-20T10:19:12.175Z,5.30
2019-01-20T10:21:42.553Z,5.83
2019-01-20T10:24:13.195Z,5.70
2019-01-20T10:26:43.246Z,5.70
2019-01-20T10:29:13.348Z,5.67
2019-01-20T10:31:43.394Z,6.13
2019-01-20T10:34:13.609Z,5.80
2019-01-20T10:36:43.758Z,6.13
2019-01-20T10:39:13.709Z,5.50
2019-01-20T10:41:43.757Z,5.47
2019-01-20T10:44:13.908Z,5.50
2019-01-20T10:46:45.974Z,5.35
2019-01-20T10:49:16.147Z,4.97
2019-01-20T10:51:45.947Z,5.25
2019-01-20T10:54:15.912Z,5.30
2019-01-20T10:56:46.079Z,4.60
2019-01-20T10:59:16.048Z,4.83
2019-01-20T11:01:45.904Z,5.35
2019-01-20T11:04:15.715Z,4.37
2019-01-20T11:06:45.647Z,5.47
2019-01-20T11:09:15.549Z,5.07
2019-01-20T11:11:45.457Z,5.20
2019-01-20T11:14:15.462Z,5.70
2019-01-20T11:16:45.505Z,4.73
2019-01-20T11:19:15.346Z,4.13
2019-01-20T11:21:45.359Z,4.83
2019-01-20T11:24:15.095Z,4.73
2019-01-20T11:26:45.087Z,5.53
2019-01-20T11:29:16.168Z,3.90
2019-01-20T11:31:45.919Z,4.83
2019-01-20T11:34:16.762Z,4.63
2019-01-20T11:36:46.920Z,4.20
2019-01-20T11:39:16.882Z,4.78
2019-01-20T11:41:46.693Z,3.90
2019-01-20T11:44:17.273Z,4.27
2019-01-20T11:46:48.307Z,3.87
2019-01-20T11:49:18.527Z,4.63
2019-01-20T11:51:48.354Z,3.95
2019-01-20T11:54:18.233Z,4.10
2019-01-20T11:56:48.024Z,3.90
2019-01-20T11:59:17.763Z,4.20
2019-01-20T12:01:47.819Z,4.30
2019-01-20T12:04:17.867Z,3.75
2019-01-20T12:06:48.941Z,4.17
2019-01-20T12:09:18.871Z,5.13
2019-01-20T12:11:48.822Z,5.77
2019-01-20T12:14:23.950Z,5.60
2019-01-20T12:16:50.263Z,6.07
2019-01-20T12:19:20.118Z,6.22
2019-01-20T12:21:50.154Z,5.60
2019-01-20T12:24:20.052Z,6.40
2019-01-20T12:26:50.492Z,5.37
2019-01-20T12:29:20.680Z,6.75
2019-01-20T12:31:51.605Z,6.40
2019-01-20T12:34:22.543Z,6.40
2019-01-20T12:36:52.485Z,5.37
2019-01-20T12:39:22.670Z,5.70
2019-01-20T12:41:52.735Z,5.50
2019-01-20T12:44:22.613Z,5.90
2019-01-20T12:46:53.089Z,6.00
2019-01-20T12:49:23.092Z,5.13
2019-01-20T12:51:53.295Z,4.80
2019-01-20T12:54:23.155Z,5.73
2019-01-20T12:56:53.094Z,5.30
2019-01-20T12:59:23.059Z,4.43
2019-01-20T13:01:53.986Z,5.40
2019-01-20T13:04:25.242Z,4.93
2019-01-20T13:06:55.295Z,5.17
2019-01-20T13:09:26.159Z,5.43
2019-01-20T13:11:56.180Z,5.63
2019-01-20T13:14:25.983Z,5.53
2019-01-20T13:16:57.167Z,5.70
2019-01-20T13:19:27.550Z,5.87
2019-01-20T13:21:58.254Z,5.63
2019-01-20T13:24:28.008Z,5.83
2019-01-20T13:26:58.049Z,5.30
2019-01-20T13:29:28.106Z,5.30
2019-01-20T13:31:57.955Z,5.10
2019-01-20T13:34:29.067Z,4.83
2019-01-20T13:36:59.138Z,5.30
2019-01-20T13:39:30.065Z,5.00
2019-01-20T13:41:59.962Z,4.90
2019-01-20T13:44:29.940Z,5.37
2019-01-20T13:46:59.715Z,5.47
2019-01-20T13:49:29.767Z,4.72
2019-01-20T13:51:59.602Z,5.53
2019-01-20T13:54:29.742Z,4.83
2019-01-20T13:56:59.723Z,5.03
2019-01-20T13:59:31.640Z,6.13
2019-01-20T14:02:01.616Z,6.17
2019-01-20T14:04:32.467Z,5.33
2019-01-20T14:07:02.750Z,5.97
2019-01-20T14:09:34.657Z,6.13
2019-01-20T14:12:06.181Z,6.40
2019-01-20T14:14:38.076Z,6.17
2019-01-20T14:17:08.173Z,5.60
2019-01-20T14:19:38.164Z,5.85
2019-01-20T14:22:08.409Z,6.53
2019-01-20T14:24:39.572Z,6.25
2019-01-20T14:27:09.784Z,6.07
2019-01-20T14:29:41.980Z,6.57
2019-01-20T14:32:12.254Z,6.57
2019-01-20T14:34:44.077Z,5.70
2019-01-20T14:37:23.717Z,6.70
2019-01-20T14:39:53.689Z,7.17
2019-01-20T14:42:23.730Z,6.65
2019-01-20T14:45:00.813Z,6.57
2019-01-20T14:47:25.478Z,6.37
2019-01-20T14:49:55.514Z,8.43
2019-01-20T14:52:26.225Z,7.47
2019-01-20T14:54:56.154Z,7.00
2019-01-20T14:57:26.180Z,7.37
2019-01-20T14:59:56.710Z,6.93
2019-01-20T15:02:29.615Z,7.50
2019-01-20T15:05:06.362Z,7.65
2019-01-20T15:07:36.707Z,7.33
2019-01-20T15:10:08.357Z,5.43
2019-01-20T15:12:39.017Z,7.07
2019-01-20T15:15:12.360Z,7.12
2019-01-20T15:17:42.303Z,7.50
2019-01-20T15:20:13.516Z,7.57
2019-01-20T15:22:43.469Z,8.23
2019-01-20T15:25:14.270Z,8.00
2019-01-20T15:27:44.362Z,7.13
2019-01-20T15:30:17.861Z,6.80
2019-01-20T15:32:49.121Z,6.87
2019-01-20T15:35:19.084Z,8.20
2019-01-20T15:37:50.119Z,6.67
2019-01-20T15:40:21.642Z,8.65
2019-01-20T15:42:51.727Z,7.67
2019-01-20T15:45:21.821Z,8.60
2019-01-20T15:47:52.664Z,8.13
2019-01-20T15:50:25.077Z,8.80
2019-01-20T15:52:56.708Z,8.98
2019-01-20T15:55:26.954Z,9.08
2019-01-20T15:57:56.965Z,9.30
2019-01-20T16:00:31.160Z,8.80
2019-01-20T16:03:01.121Z,8.87
2019-01-20T16:05:32.176Z,8.87
2019-01-20T16:08:02.427Z,9.63
2019-01-20T16:10:32.301Z,9.50
2019-01-20T16:13:02.129Z,9.13
2019-01-20T16:15:34.253Z,8.53
2019-01-20T16:18:04.341Z,9.40
2019-01-20T16:20:35.456Z,9.53
2019-01-20T16:23:08.118Z,8.60
2019-01-20T16:25:39.935Z,9.50
2019-01-20T16:28:11.319Z,9.40
2019-01-20T16:30:41.733Z,9.37
2019-01-20T16:33:11.854Z,9.63
2019-01-20T16:35:42.073Z,9.53
2019-01-20T16:38:13.020Z,9.87
2019-01-20T16:40:43.219Z,9.77
2019-01-20T16:43:13.594Z,10.77
2019-01-20T16:45:45.658Z,11.20
2019-01-20T16:48:18.358Z,10.23
2019-01-20T16:50:48.131Z,9.70
2019-01-20T16:53:18.466Z,9.97
2019-01-20T16:55:48.449Z,8.97
2019-01-20T16:58:18.588Z,8.83
2019-01-20T17:00:48.624Z,9.20
2019-01-20T17:03:18.595Z,8.37
2019-01-20T17:05:50.868Z,9.10
2019-01-20T17:08:21.172Z,8.87
2019-01-20T17:10:51.142Z,8.97
2019-01-20T17:13:21.113Z,9.10
2019-01-20T17:15:52.105Z,9.95
2019-01-20T17:18:23.387Z,10.72
2019-01-20T17:20:53.468Z,10.50
2019-01-20T17:23:23.530Z,11.10
2019-01-20T17:25:54.176Z,10.17
2019-01-20T17:28:25.097Z,10.23
2019-01-20T17:30:55.305Z,9.15
2019-01-20T17:33:25.338Z,10.13
2019-01-20T17:35:55.428Z,10.77
2019-01-20T17:38:28.415Z,10.63
2019-01-20T17:41:04.621Z,11.18
2019-01-20T17:43:34.662Z,12.05
2019-01-20T17:46:05.025Z,12.47
2019-01-20T17:48:35.104Z,12.60
2019-01-20T17:51:06.167Z,13.30
2019-01-20T17:53:36.335Z,11.97
2019-01-20T17:56:06.626Z,13.93
2019-01-20T17:58:36.842Z,14.13
2019-01-20T18:01:07.590Z,14.60
2019-01-20T18:03:37.533Z,13.45
2019-01-20T18:06:07.927Z,14.03
2019-01-20T18:08:38.229Z,13.67
2019-01-20T18:11:08.347Z,15.50
2019-01-20T18:13:38.570Z,14.60
2019-01-20T18:16:08.898Z,14.85
2019-01-20T18:18:39.261Z,14.27
2019-01-20T18:21:10.173Z,13.87
2019-01-20T18:23:40.220Z,15.10
2019-01-20T18:26:10.119Z,16.03
2019-01-20T18:28:40.567Z,15.70
2019-01-20T18:31:10.576Z,16.17
2019-01-20T18:33:40.500Z,15.50
2019-01-20T18:36:10.607Z,15.73
2019-01-20T18:38:41.509Z,15.38
2019-01-20T18:41:12.637Z,17.13
2019-01-20T18:43:42.621Z,15.83
2019-01-20T18:46:34.392Z,15.47
2019-01-20T18:49:09.456Z,16.10
2019-01-20T18:51:41.989Z,15.67
2019-01-20T18:54:19.594Z,16.60
2019-01-20T18:56:55.203Z,17.10
2019-01-20T18:59:29.282Z,17.10
2019-01-20T19:02:00.662Z,17.10
2019-01-20T19:04:31.185Z,16.37
2019-01-20T19:07:07.505Z,17.10
2019-01-20T19:09:39.953Z,17.50
2019-01-20T19:12:15.850Z,16.53
2019-01-20T19:14:46.850Z,16.57
2019-01-20T19:17:18.165Z,17.67
2019-01-20T19:19:49.613Z,18.07
2019-01-20T19:22:19.644Z,16.83
2019-01-20T19:24:49.892Z,16.90
2019-01-20T19:27:20.406Z,15.67
2019-01-20T19:29:53.536Z,16.30
2019-01-20T19:32:24.465Z,17.43
2019-01-20T19:34:56.391Z,16.23
2019-01-20T19:37:26.927Z,16.93
2019-01-20T19:39:59.885Z,17.82
2019-01-20T19:42:30.342Z,16.13
2019-01-20T19:45:01.587Z,17.10
2019-01-20T19:47:36.069Z,17.23
2019-01-20T19:50:07.618Z,18.30
2019-01-20T19:52:39.062Z,17.67
2019-01-20T19:55:15.565Z,16.62
2019-01-20T19:57:45.733Z,18.70
2019-01-20T20:00:26.193Z,17.20
2019-01-20T20:02:57.451Z,17.07
2019-01-20T20:05:27.663Z,20.27
2019-01-20T20:07:58.132Z,18.60
2019-01-20T20:10:28.586Z,17.97
2019-01-20T20:12:58.961Z,18.77
2019-01-20T20:15:29.532Z,19.13
2019-01-20T20:17:59.979Z,18.70
2019-01-20T20:20:30.440Z,19.70
2019-01-20T20:23:01.006Z,19.87
2019-01-20T20:25:32.031Z,20.53
2019-01-20T20:28:02.390Z,19.53
2019-01-20T20:30:34.684Z,19.90
2019-01-20T20:33:06.781Z,19.60
2019-01-20T20:35:39.032Z,19.45
2019-01-20T20:38:09.358Z,19.23
2019-01-20T20:40:39.619Z,20.40
2019-01-20T20:43:09.723Z,20.70
2019-01-20T20:45:39.693Z,20.77
2019-01-20T20:48:09.848Z,20.53
2019-01-20T20:50:40.848Z,21.10
2019-01-20T20:53:12.695Z,24.72
2019-01-20T20:55:43.061Z,23.43
2019-01-20T20:58:13.148Z,21.77
2019-01-20T21:00:46.606Z,23.35
2019-01-20T21:03:28.599Z,24.57
2019-01-20T21:05:58.865Z,28.27
2019-01-20T21:08:30.035Z,29.17
2019-01-20T21:11:04.869Z,27.73
2019-01-20T21:13:35.926Z,24.93
2019-01-20T21:16:06.586Z,26.10
2019-01-20T21:18:37.758Z,24.87
2019-01-20T21:21:12.507Z,25.12
2019-01-20T21:23:42.520Z,24.67
2019-01-20T21:26:12.649Z,24.92
2019-01-20T21:28:44.574Z,27.13
2019-01-20T21:31:15.912Z,25.13
2019-01-20T21:33:54.077Z,23.73
2019-01-20T21:36:31.712Z,23.37
2019-01-20T21:39:02.743Z,23.47
2019-01-20T21:41:37.418Z,23.70
2019-01-20T21:44:07.647Z,24.07
2019-01-20T21:46:45.406Z,23.07
2019-01-20T21:49:16.093Z,23.93
2019-01-20T21:51:47.983Z,25.33
2019-01-20T21:54:20.624Z,26.10
2019-01-20T21:56:53.655Z,24.83
2019-01-20T21:59:23.840Z,25.87
2019-01-20T22:01:53.937Z,24.70
2019-01-20T22:04:24.241Z,24.60
2019-01-20T22:06:56.230Z,23.33
2019-01-20T22:09:26.452Z,24.40
2019-01-20T22:11:56.567Z,23.27
2019-01-20T22:14:26.963Z,23.67
2019-01-20T22:16:57.040Z,23.80
2019-01-20T22:19:31.647Z,23.20
2019-01-20T22:22:01.837Z,23.07
2019-01-20T22:24:32.389Z,23.13
2019-01-20T22:27:02.994Z,24.90
2019-01-20T22:29:33.356Z,24.50
2019-01-20T22:32:03.974Z,24.27
2019-01-20T22:34:34.106Z,24.87
2019-01-20T22:37:04.140Z,24.83
2019-01-20T22:39:34.316Z,24.40
2019-01-20T22:42:04.447Z,25.05
2019-01-20T22:44:35.988Z,24.85
2019-01-20T22:47:07.999Z,23.03
2019-01-20T22:49:40.091Z,23.43
2019-01-20T22:52:10.324Z,21.93
2019-01-20T22:54:40.499Z,22.63
2019-01-20T22:57:15.289Z,22.90
2019-01-20T22:59:47.418Z,22.97
2019-01-20T23:02:18.667Z,21.67
2019-01-20T23:04:49.860Z,21.13
2019-01-20T23:07:20.170Z,22.17
2019-01-20T23:09:50.206Z,22.23
2019-01-20T23:12:20.545Z,22.67
2019-01-20T23:14:50.946Z,22.00
2019-01-20T23:17:20.926Z,21.50
2019-01-20T23:19:51.866Z,22.32
2019-01-20T23:22:21.916Z,21.43
2019-01-20T23:24:53.529Z,21.82
2019-01-20T23:27:23.656Z,20.90
2019-01-20T23:29:53.597Z,20.30
2019-01-20T23:32:23.695Z,19.70
2019-01-20T23:34:53.734Z,19.23
2019-01-20T23:37:24.167Z,20.37
2019-01-20T23:39:54.089Z,19.73
2019-01-20T23:42:25.262Z,19.40
2019-01-20T23:44:55.281Z,20.92
2019-01-20T23:47:25.879Z,20.90
2019-01-20T23:49:56.018Z,20.32
2019-01-20T23:52:26.245Z,21.03
2019-01-20T23:54:56.741Z,18.73
2019-01-20T23:57:27.564Z,20.17
2019-01-20T23:59:57.850Z,19.37
